createdAt,value
2022-10-01T00:00:32.520Z,9.29
2022-10-01T00:01:33.229Z,9.28
2022-10-01T00:02:39.818Z,9.28
2022-10-01T00:03:32.091Z,9.28
2022-10-01T00:04:49.726Z,9.28
2022-10-01T00:05:32.037Z,9.27
2022-10-01T00:07:13.889Z,9.27
2022-10-01T00:07:32.946Z,9.26
2022-10-01T00:08:41.802Z,9.25
2022-10-01T00:09:32.042Z,9.24
2022-10-01T00:10:31.946Z,9.22
2022-10-01T00:11:36.312Z,9.21
2022-10-01T00:12:38.728Z,9.19
2022-10-01T00:13:31.953Z,9.18
2022-10-01T00:14:32.009Z,9.16
2022-10-01T00:15:34.780Z,9.14
2022-10-01T00:16:32.156Z,9.13
2022-10-01T00:17:40.243Z,9.12
2022-10-01T00:18:32.167Z,9.10
2022-10-01T00:19:33.461Z,9.09
2022-10-01T00:20:32.420Z,9.08
2022-10-01T00:21:36.008Z,9.07
2022-10-01T00:22:31.854Z,9.06
2022-10-01T00:23:38.590Z,9.05
2022-10-01T00:24:32.572Z,9.05
2022-10-01T00:25:32.150Z,9.04
2022-10-01T00:26:32.057Z,9.03
2022-10-01T00:27:33.946Z,9.03
2022-10-01T00:28:38.462Z,9.03
2022-10-01T00:29:32.456Z,9.02
2022-10-01T00:30:32.022Z,9.02
2022-10-01T00:31:33.625Z,9.02
2022-10-01T00:32:32.882Z,9.02
2022-10-01T00:34:25.693Z,10.15
2022-10-01T00:35:26.349Z,9.70
2022-10-01T00:36:25.298Z,9.40
2022-10-01T00:37:25.277Z,9.23
2022-10-01T00:38:25.236Z,9.13
2022-10-01T00:39:32.284Z,9.07
2022-10-01T00:40:25.408Z,9.03
2022-10-01T00:41:25.468Z,9.01
2022-10-01T00:42:25.266Z,8.99
2022-10-01T00:43:26.131Z,8.97
2022-10-01T00:44:25.715Z,8.96
2022-10-01T00:45:31.616Z,8.94
2022-10-01T00:46:27.160Z,8.93
2022-10-01T00:47:25.268Z,8.92
2022-10-01T00:48:29.237Z,8.92
2022-10-01T00:49:33.150Z,8.91
2022-10-01T00:50:25.557Z,8.91
2022-10-01T00:51:32.369Z,8.91
2022-10-01T00:52:26.950Z,8.90
2022-10-01T00:53:26.702Z,8.90
2022-10-01T00:54:25.532Z,8.90
2022-10-01T00:55:25.095Z,8.89
2022-10-01T00:56:32.024Z,8.89
2022-10-01T00:57:31.630Z,8.89
2022-10-01T00:58:25.207Z,8.88
2022-10-01T00:59:25.323Z,8.88
2022-10-01T01:00:25.328Z,8.88
2022-10-01T01:01:26.161Z,8.88
2022-10-01T01:02:33.542Z,8.89
2022-10-01T01:03:25.588Z,8.88
2022-10-01T01:04:26.034Z,8.88
2022-10-01T01:05:25.334Z,8.88
2022-10-01T01:06:25.506Z,8.87
2022-10-01T01:07:32.610Z,8.86
2022-10-01T01:08:26.015Z,8.85
2022-10-01T01:09:26.077Z,8.85
2022-10-01T01:10:25.166Z,8.85
2022-10-01T01:11:25.561Z,8.84
2022-10-01T01:12:25.142Z,8.84
2022-10-01T01:13:33.661Z,8.84
2022-10-01T01:14:26.256Z,8.84
2022-10-01T01:15:25.994Z,8.83
2022-10-01T01:16:26.884Z,8.83
2022-10-01T01:17:35.743Z,8.82
2022-10-01T01:18:31.655Z,8.82
2022-10-01T01:19:41.235Z,8.81
2022-10-01T01:20:25.602Z,8.80
2022-10-01T01:21:29.043Z,8.79
2022-10-01T01:22:25.943Z,8.78
2022-10-01T01:23:34.644Z,8.78
2022-10-01T01:24:31.043Z,8.78
2022-10-01T01:25:24.969Z,8.78
2022-10-01T01:26:25.232Z,8.78
2022-10-01T01:27:27.983Z,8.78
2022-10-01T01:28:31.150Z,8.79
2022-10-01T01:29:24.819Z,8.80
2022-10-01T01:30:25.881Z,8.81
2022-10-01T01:31:31.245Z,8.82
2022-10-01T01:32:25.089Z,8.84
2022-10-01T01:33:26.022Z,8.85
2022-10-01T01:34:31.209Z,8.86
2022-10-01T01:35:24.845Z,8.87
2022-10-01T01:36:25.484Z,8.88
2022-10-01T01:37:25.542Z,8.90
2022-10-01T01:38:27.178Z,8.91
2022-10-01T01:39:24.845Z,8.92
2022-10-01T01:40:31.251Z,8.93
2022-10-01T01:41:25.416Z,8.94
2022-10-01T01:43:05.801Z,8.95
2022-10-01T01:43:24.454Z,8.96
2022-10-01T01:44:46.270Z,8.96
2022-10-01T01:45:33.157Z,8.97
2022-10-01T01:46:34.779Z,8.98
2022-10-01T01:47:24.517Z,8.99
2022-10-01T01:48:24.530Z,8.99
2022-10-01T01:49:24.477Z,9.00
2022-10-01T01:50:31.610Z,9.00
2022-10-01T01:51:24.963Z,9.01
2022-10-01T01:52:24.325Z,9.02
2022-10-01T01:53:30.707Z,9.02
2022-10-01T01:54:24.398Z,9.03
2022-10-01T01:55:30.809Z,9.04
2022-10-01T01:56:24.279Z,9.04
2022-10-01T01:57:25.071Z,9.05
2022-10-01T01:58:24.285Z,9.06
2022-10-01T01:59:28.241Z,9.06
2022-10-01T02:00:24.723Z,9.07
2022-10-01T02:01:32.536Z,9.07
2022-10-01T02:02:24.268Z,9.07
2022-10-01T02:03:24.429Z,9.08
2022-10-01T02:04:25.369Z,9.08
2022-10-01T02:05:34.481Z,9.08
2022-10-01T02:06:25.357Z,9.09
2022-10-01T02:07:31.323Z,9.09
2022-10-01T02:08:24.199Z,9.09
2022-10-01T02:09:25.191Z,9.10
2022-10-01T02:10:24.019Z,9.10
2022-10-01T02:11:36.307Z,9.10
2022-10-01T02:12:24.999Z,9.10
2022-10-01T02:13:30.608Z,9.10
2022-10-01T02:14:45.659Z,9.10
2022-10-01T02:15:25.205Z,9.10
2022-10-01T02:16:24.508Z,9.10
2022-10-01T02:17:25.079Z,9.10
2022-10-01T02:18:30.632Z,9.11
2022-10-01T02:19:25.222Z,9.11
2022-10-01T02:20:24.755Z,9.11
2022-10-01T02:21:24.401Z,9.11
2022-10-01T02:22:24.310Z,9.11
2022-10-01T02:23:24.339Z,9.11
2022-10-01T02:24:30.695Z,9.11
2022-10-01T02:25:23.971Z,9.11
2022-10-01T02:26:26.365Z,9.11
2022-10-01T02:27:24.823Z,9.11
2022-10-01T02:28:25.005Z,9.11
2022-10-01T02:29:31.440Z,9.10
2022-10-01T02:30:31.072Z,9.10
2022-10-01T02:31:24.186Z,9.10
2022-10-01T02:32:45.384Z,9.10
2022-10-01T02:33:24.305Z,9.10
2022-10-01T02:34:44.921Z,9.09
2022-10-01T02:35:32.512Z,9.09
2022-10-01T02:37:08.049Z,10.22
2022-10-01T02:38:09.586Z,9.77
2022-10-01T02:39:08.658Z,9.47
2022-10-01T02:40:09.816Z,9.30
2022-10-01T02:41:08.381Z,9.20
2022-10-01T02:42:08.269Z,9.14
2022-10-01T02:43:09.492Z,9.11
2022-10-01T02:44:08.410Z,9.09
2022-10-01T02:45:14.158Z,9.07
2022-10-01T02:46:16.837Z,9.07
2022-10-01T02:47:08.254Z,9.06
2022-10-01T02:48:08.306Z,9.05
2022-10-01T02:49:08.609Z,9.05
2022-10-01T02:50:10.371Z,9.05
2022-10-01T02:51:23.162Z,9.04
2022-10-01T02:52:08.179Z,9.04
2022-10-01T02:53:09.906Z,9.04
2022-10-01T02:54:08.158Z,9.03
2022-10-01T02:55:31.003Z,9.03
2022-10-01T02:56:08.084Z,9.03
2022-10-01T02:57:14.402Z,9.03
2022-10-01T02:58:09.018Z,9.03
2022-10-01T02:59:09.290Z,9.03
2022-10-01T03:00:08.328Z,9.03
2022-10-01T03:01:08.511Z,9.03
2022-10-01T03:02:14.665Z,9.02
2022-10-01T03:03:07.982Z,9.02
2022-10-01T03:04:07.994Z,9.02
2022-10-01T03:05:07.942Z,9.01
2022-10-01T03:06:28.913Z,9.01
2022-10-01T03:07:07.987Z,9.01
2022-10-01T03:08:15.021Z,9.01
2022-10-01T03:09:08.781Z,9.01
2022-10-01T03:10:12.085Z,9.00
2022-10-01T03:11:08.367Z,9.00
2022-10-01T03:12:08.761Z,9.00
2022-10-01T03:13:07.785Z,9.00
2022-10-01T03:14:23.230Z,8.99
2022-10-01T03:15:08.923Z,8.99
2022-10-01T03:16:14.040Z,8.99
2022-10-01T03:17:08.776Z,8.99
2022-10-01T03:18:13.679Z,8.99
2022-10-01T03:19:08.197Z,8.99
2022-10-01T03:20:15.310Z,8.99
2022-10-01T03:21:08.106Z,8.99
2022-10-01T03:22:08.226Z,8.99
2022-10-01T03:23:07.720Z,8.98
2022-10-01T03:24:09.821Z,8.98
2022-10-01T03:25:07.765Z,8.99
2022-10-01T03:26:14.206Z,8.99
2022-10-01T03:27:08.085Z,8.99
2022-10-01T03:28:08.455Z,8.99
2022-10-01T03:29:09.242Z,8.99
2022-10-01T03:30:09.831Z,8.99
2022-10-01T03:31:07.655Z,8.99
2022-10-01T03:32:15.039Z,9.00
2022-10-01T03:33:07.530Z,9.00
2022-10-01T03:34:07.522Z,9.00
2022-10-01T03:35:07.602Z,9.01
2022-10-01T03:36:07.896Z,9.01
2022-10-01T03:37:14.728Z,9.01
2022-10-01T03:38:07.455Z,9.01
2022-10-01T03:39:07.528Z,9.02
2022-10-01T03:40:08.307Z,9.01
2022-10-01T03:41:08.455Z,9.02
2022-10-01T03:42:09.886Z,9.02
2022-10-01T03:43:26.226Z,9.02
2022-10-01T03:44:08.153Z,9.02
2022-10-01T03:45:07.456Z,9.03
2022-10-01T03:46:07.438Z,9.03
2022-10-01T03:47:07.355Z,9.03
2022-10-01T03:48:07.470Z,9.03
2022-10-01T03:49:14.386Z,9.03
2022-10-01T03:50:07.737Z,9.03
2022-10-01T03:51:07.338Z,9.02
2022-10-01T03:52:07.308Z,9.02
2022-10-01T03:53:08.437Z,9.02
2022-10-01T03:54:08.967Z,9.02
2022-10-01T03:55:13.779Z,9.02
2022-10-01T03:56:08.556Z,9.02
2022-10-01T03:57:07.344Z,9.02
2022-10-01T03:58:32.890Z,9.03
2022-10-01T03:59:07.258Z,9.03
2022-10-01T04:00:13.627Z,9.03
2022-10-01T04:01:07.212Z,9.03
2022-10-01T04:02:07.306Z,9.04
2022-10-01T04:03:09.068Z,9.04
2022-10-01T04:04:08.189Z,9.04
2022-10-01T04:05:07.605Z,9.05
2022-10-01T04:06:15.191Z,9.05
2022-10-01T04:07:07.089Z,9.06
2022-10-01T04:08:08.079Z,9.06
2022-10-01T04:09:08.187Z,9.06
2022-10-01T04:10:23.757Z,9.06
2022-10-01T04:11:08.310Z,9.06
2022-10-01T04:12:13.518Z,9.06
2022-10-01T04:13:07.366Z,9.06
2022-10-01T04:14:06.957Z,9.05
2022-10-01T04:15:07.167Z,9.05
2022-10-01T04:16:08.178Z,9.05
2022-10-01T04:17:13.863Z,9.04
2022-10-01T04:18:07.871Z,9.04
2022-10-01T04:19:06.992Z,9.04
2022-10-01T04:20:07.000Z,9.03
2022-10-01T04:21:13.235Z,9.03
2022-10-01T04:22:06.973Z,9.03
2022-10-01T04:23:13.496Z,9.02
2022-10-01T04:24:06.791Z,9.02
2022-10-01T04:25:09.107Z,9.02
2022-10-01T04:26:06.924Z,9.02
2022-10-01T04:27:06.923Z,9.02
2022-10-01T04:28:07.180Z,9.01
2022-10-01T04:29:15.225Z,9.01
2022-10-01T04:30:06.758Z,9.01
2022-10-01T04:31:29.872Z,9.01
2022-10-01T04:32:07.641Z,9.01
2022-10-01T04:33:07.029Z,9.00
2022-10-01T04:34:06.708Z,9.00
2022-10-01T04:35:23.439Z,9.00
2022-10-01T04:36:07.917Z,8.99
2022-10-01T04:37:07.406Z,8.99
2022-10-01T04:38:13.552Z,8.99
2022-10-01T04:39:07.054Z,8.99
2022-10-01T04:40:06.956Z,8.98
2022-10-01T04:41:13.343Z,8.98
2022-10-01T04:42:06.572Z,8.98
2022-10-01T04:43:06.775Z,8.98
2022-10-01T04:44:06.785Z,8.98
2022-10-01T04:45:06.693Z,8.98
2022-10-01T04:46:11.712Z,8.99
2022-10-01T04:47:06.727Z,8.99
2022-10-01T04:48:06.461Z,8.99
2022-10-01T04:49:06.928Z,8.99
2022-10-01T04:50:06.788Z,8.99
2022-10-01T04:51:12.784Z,8.99
2022-10-01T04:52:27.995Z,8.99
2022-10-01T04:53:06.493Z,9.00
2022-10-01T04:54:06.645Z,9.00
2022-10-01T04:55:06.463Z,9.00
2022-10-01T04:56:06.684Z,9.00
2022-10-01T04:57:13.167Z,9.01
2022-10-01T04:58:09.545Z,9.01
2022-10-01T04:59:06.813Z,9.01
2022-10-01T05:00:12.302Z,9.01
2022-10-01T05:01:06.685Z,9.01
2022-10-01T05:02:06.597Z,9.01
2022-10-01T05:03:13.054Z,9.02
2022-10-01T05:04:06.459Z,9.02
2022-10-01T05:05:06.623Z,9.03
2022-10-01T05:06:06.758Z,9.04
2022-10-01T05:07:06.519Z,9.04
2022-10-01T05:08:06.825Z,9.05
2022-10-01T05:09:12.579Z,9.06
2022-10-01T05:10:07.490Z,9.06
2022-10-01T05:11:06.482Z,9.06
2022-10-01T05:12:06.599Z,9.07
2022-10-01T05:13:06.215Z,9.08
2022-10-01T05:14:06.213Z,9.08
2022-10-01T05:15:13.760Z,9.09
2022-10-01T05:16:06.287Z,9.10
2022-10-01T05:17:06.997Z,9.10
2022-10-01T05:18:06.577Z,9.11
2022-10-01T05:19:21.731Z,9.11
2022-10-01T05:20:06.717Z,9.12
2022-10-01T05:21:49.168Z,10.27
2022-10-01T05:22:49.694Z,9.83
2022-10-01T05:23:49.563Z,9.53
2022-10-01T05:24:49.282Z,9.37
2022-10-01T05:25:49.180Z,9.28
2022-10-01T05:26:49.228Z,9.23
2022-10-01T05:28:02.765Z,9.20
2022-10-01T05:28:49.497Z,9.19
2022-10-01T05:30:16.879Z,9.19
2022-10-01T05:30:49.303Z,9.19
2022-10-01T05:32:02.528Z,9.20
2022-10-01T05:32:49.295Z,9.20
2022-10-01T05:34:03.154Z,9.21
2022-10-01T05:34:53.417Z,9.22
2022-10-01T05:35:51.060Z,9.22
2022-10-01T05:36:56.152Z,9.23
2022-10-01T05:38:13.223Z,9.23
2022-10-01T05:38:49.396Z,9.24
2022-10-01T05:40:11.315Z,9.24
2022-10-01T05:40:49.371Z,9.25
2022-10-01T05:41:56.603Z,9.25
2022-10-01T05:42:49.128Z,9.26
2022-10-01T05:43:48.985Z,9.27
2022-10-01T05:44:49.433Z,9.29
2022-10-01T05:45:49.237Z,9.30
2022-10-01T05:46:55.298Z,9.33
2022-10-01T05:47:49.431Z,9.35
2022-10-01T05:48:49.838Z,9.38
2022-10-01T05:49:48.998Z,9.41
2022-10-01T05:50:48.970Z,9.45
2022-10-01T05:51:55.221Z,9.49
2022-10-01T05:52:49.149Z,9.52
2022-10-01T05:53:50.455Z,9.56
2022-10-01T05:54:48.919Z,9.59
2022-10-01T05:55:57.250Z,9.62
2022-10-01T05:56:55.028Z,9.65
2022-10-01T05:57:48.996Z,9.67
2022-10-01T05:58:49.498Z,9.69
2022-10-01T05:59:49.028Z,9.71
2022-10-01T06:01:06.566Z,9.73
2022-10-01T06:01:55.505Z,9.75
2022-10-01T06:03:31.796Z,9.77
2022-10-01T06:03:48.679Z,9.79
2022-10-01T06:05:00.915Z,9.82
2022-10-01T06:05:49.334Z,9.86
2022-10-01T06:06:57.156Z,9.90
2022-10-01T06:07:49.380Z,9.94
2022-10-01T06:08:48.762Z,9.99
2022-10-01T06:09:48.505Z,10.03
2022-10-01T06:10:48.907Z,10.07
2022-10-01T06:11:56.103Z,10.11
2022-10-01T06:12:49.901Z,10.14
2022-10-01T06:13:48.562Z,10.18
2022-10-01T06:14:50.504Z,10.22
2022-10-01T06:15:48.541Z,10.25
2022-10-01T06:16:48.668Z,10.29
2022-10-01T06:17:55.169Z,10.32
2022-10-01T06:18:48.567Z,10.35
2022-10-01T06:19:48.720Z,10.37
2022-10-01T06:20:48.496Z,10.39
2022-10-01T06:21:51.193Z,10.39
2022-10-01T06:22:54.909Z,10.40
2022-10-01T06:23:48.461Z,10.40
2022-10-01T06:24:49.170Z,10.39
2022-10-01T06:26:03.922Z,10.39
2022-10-01T06:26:48.410Z,10.39
2022-10-01T06:28:11.296Z,10.39
2022-10-01T06:28:48.419Z,10.39
2022-10-01T06:29:55.852Z,10.40
2022-10-01T06:30:48.767Z,10.41
2022-10-01T06:31:54.976Z,10.42
2022-10-01T06:32:48.498Z,10.43
2022-10-01T06:33:58.337Z,10.45
2022-10-01T06:34:50.535Z,10.46
2022-10-01T06:35:48.589Z,10.48
2022-10-01T06:36:48.627Z,10.50
2022-10-01T06:37:49.446Z,10.52
2022-10-01T06:38:55.262Z,10.55
2022-10-01T06:39:48.366Z,10.58
2022-10-01T06:40:48.462Z,10.62
2022-10-01T06:42:09.928Z,10.65
2022-10-01T06:42:48.515Z,10.68
2022-10-01T06:43:48.315Z,10.71
2022-10-01T06:44:54.576Z,10.74
2022-10-01T06:45:48.409Z,10.76
2022-10-01T06:47:09.541Z,10.78
2022-10-01T06:47:48.556Z,10.80
2022-10-01T06:48:49.910Z,10.82
2022-10-01T06:49:48.998Z,10.83
2022-10-01T06:50:55.416Z,10.84
2022-10-01T06:51:49.374Z,10.85
2022-10-01T06:52:49.389Z,10.85
2022-10-01T06:53:48.456Z,10.86
2022-10-01T06:54:49.518Z,10.87
2022-10-01T06:56:18.273Z,12.03
2022-10-01T06:57:19.615Z,11.58
2022-10-01T06:58:18.292Z,11.30
2022-10-01T06:59:18.654Z,11.14
2022-10-01T07:00:18.642Z,11.06
2022-10-01T07:01:27.708Z,11.02
2022-10-01T07:02:18.845Z,11.00
2022-10-01T07:03:27.466Z,10.99
2022-10-01T07:04:20.392Z,10.98
2022-10-01T07:05:18.159Z,10.99
2022-10-01T07:06:18.603Z,10.99
2022-10-01T07:07:29.382Z,10.99
2022-10-01T07:08:21.237Z,10.99
2022-10-01T07:09:18.459Z,11.00
2022-10-01T07:10:18.092Z,11.00
2022-10-01T07:11:18.290Z,11.00
2022-10-01T07:12:24.744Z,11.00
2022-10-01T07:13:18.681Z,11.00
2022-10-01T07:14:18.039Z,11.00
2022-10-01T07:15:18.209Z,11.00
2022-10-01T07:16:18.455Z,11.01
2022-10-01T07:17:39.732Z,11.02
2022-10-01T07:18:24.810Z,11.04
2022-10-01T07:19:18.265Z,11.06
2022-10-01T07:20:23.526Z,11.08
2022-10-01T07:22:01.905Z,12.26
2022-10-01T07:23:08.803Z,11.82
2022-10-01T07:24:28.641Z,11.52
2022-10-01T07:25:01.793Z,11.36
2022-10-01T07:26:26.919Z,11.28
2022-10-01T07:27:06.472Z,11.23
2022-10-01T07:28:22.110Z,11.21
2022-10-01T07:29:02.058Z,11.21
2022-10-01T07:30:01.861Z,11.22
2022-10-01T07:31:01.848Z,11.23
2022-10-01T07:32:02.999Z,11.25
2022-10-01T07:33:07.973Z,11.27
2022-10-01T07:34:01.916Z,11.30
2022-10-01T07:35:02.526Z,11.33
2022-10-01T07:36:02.433Z,11.37
2022-10-01T07:37:01.578Z,11.41
2022-10-01T07:38:01.407Z,11.45
2022-10-01T07:39:08.716Z,11.50
2022-10-01T07:40:06.575Z,11.54
2022-10-01T07:41:03.071Z,11.59
2022-10-01T07:42:01.775Z,11.64
2022-10-01T07:43:14.592Z,11.70
2022-10-01T07:44:08.181Z,11.75
2022-10-01T07:45:01.883Z,11.80
2022-10-01T07:46:02.165Z,11.84
2022-10-01T07:47:26.277Z,11.89
2022-10-01T07:48:01.830Z,11.93
2022-10-01T07:49:04.445Z,11.98
2022-10-01T07:50:13.533Z,12.03
2022-10-01T07:51:04.469Z,12.08
2022-10-01T07:52:01.655Z,12.12
2022-10-01T07:53:09.224Z,12.16
2022-10-01T07:54:01.961Z,12.21
2022-10-01T07:55:24.645Z,12.25
2022-10-01T07:56:02.602Z,12.28
2022-10-01T07:57:02.302Z,12.32
2022-10-01T07:58:01.766Z,12.36
2022-10-01T07:59:01.310Z,12.39
2022-10-01T08:00:02.719Z,12.42
2022-10-01T08:01:07.902Z,12.45
2022-10-01T08:02:01.148Z,12.48
2022-10-01T08:03:01.584Z,12.50
2022-10-01T08:04:08.498Z,12.52
2022-10-01T08:05:01.266Z,12.53
2022-10-01T08:06:01.737Z,12.55
2022-10-01T08:07:08.712Z,12.57
2022-10-01T08:08:02.005Z,12.59
2022-10-01T08:09:01.771Z,12.61
2022-10-01T08:10:15.996Z,12.64
2022-10-01T08:11:01.577Z,12.67
2022-10-01T08:12:25.245Z,12.71
2022-10-01T08:13:00.963Z,12.75
2022-10-01T08:14:07.822Z,12.79
2022-10-01T08:15:24.029Z,12.82
2022-10-01T08:16:07.804Z,12.86
2022-10-01T08:17:01.497Z,12.90
2022-10-01T08:18:07.596Z,12.92
2022-10-01T08:19:02.225Z,12.95
2022-10-01T08:20:01.974Z,12.97
2022-10-01T08:21:02.143Z,12.99
2022-10-01T08:22:00.936Z,13.00
2022-10-01T08:23:00.973Z,13.01
2022-10-01T08:24:08.156Z,13.02
2022-10-01T08:25:01.040Z,13.04
2022-10-01T08:26:22.456Z,13.05
2022-10-01T08:27:00.853Z,13.07
2022-10-01T08:28:01.090Z,13.09
2022-10-01T08:29:44.520Z,14.26
2022-10-01T08:30:46.052Z,13.82
2022-10-01T08:31:46.106Z,13.53
2022-10-01T08:32:46.376Z,13.37
2022-10-01T08:33:44.269Z,13.29
2022-10-01T08:34:44.258Z,13.26
2022-10-01T08:35:50.989Z,13.25
2022-10-01T08:36:44.401Z,13.26
2022-10-01T08:37:44.269Z,13.27
2022-10-01T08:38:44.357Z,13.29
2022-10-01T08:39:45.267Z,13.30
2022-10-01T08:40:50.696Z,13.31
2022-10-01T08:41:44.617Z,13.32
2022-10-01T08:42:44.389Z,13.32
2022-10-01T08:43:44.197Z,13.31
2022-10-01T08:44:44.154Z,13.30
2022-10-01T08:45:45.945Z,13.29
2022-10-01T08:46:51.807Z,13.30
2022-10-01T08:47:44.141Z,13.34
2022-10-01T08:48:44.047Z,13.38
2022-10-01T08:50:09.247Z,13.42
2022-10-01T08:50:44.403Z,13.45
2022-10-01T08:51:44.598Z,13.48
2022-10-01T08:52:50.576Z,13.51
2022-10-01T08:54:08.205Z,13.55
2022-10-01T08:54:43.978Z,13.62
2022-10-01T08:55:44.456Z,13.70
2022-10-01T08:56:44.033Z,13.80
2022-10-01T08:57:52.659Z,13.89
2022-10-01T08:58:44.081Z,13.98
2022-10-01T08:59:44.296Z,14.07
2022-10-01T09:00:43.929Z,14.14
2022-10-01T09:01:44.039Z,14.20
2022-10-01T09:02:43.833Z,14.26
2022-10-01T09:03:51.658Z,14.32
2022-10-01T09:04:43.869Z,14.37
2022-10-01T09:05:44.576Z,14.41
2022-10-01T09:06:43.984Z,14.46
2022-10-01T09:07:44.109Z,14.51
2022-10-01T09:08:51.878Z,14.57
2022-10-01T09:09:44.923Z,14.63
2022-10-01T09:10:43.919Z,14.69
2022-10-01T09:11:44.631Z,14.74
2022-10-01T09:12:43.660Z,14.78
2022-10-01T09:13:52.676Z,14.81
2022-10-01T09:14:43.869Z,14.84
2022-10-01T09:15:44.065Z,14.87
2022-10-01T09:16:43.783Z,14.90
2022-10-01T09:17:44.106Z,14.94
2022-10-01T09:19:16.241Z,14.96
2022-10-01T09:19:47.255Z,14.98
2022-10-01T09:21:15.266Z,14.99
2022-10-01T09:21:44.734Z,15.01
2022-10-01T09:22:46.698Z,15.04
2022-10-01T09:23:43.773Z,15.08
2022-10-01T09:24:43.753Z,15.13
2022-10-01T09:25:47.763Z,15.18
2022-10-01T09:26:44.314Z,15.24
2022-10-01T09:27:44.588Z,15.29
2022-10-01T09:28:44.962Z,15.35
2022-10-01T09:29:50.234Z,15.42
2022-10-01T09:30:45.212Z,15.50
2022-10-01T09:31:47.851Z,15.59
2022-10-01T09:32:43.655Z,15.68
2022-10-01T09:33:43.852Z,15.77
2022-10-01T09:34:51.716Z,15.85
2022-10-01T09:35:43.464Z,15.93
2022-10-01T09:36:45.889Z,16.00
2022-10-01T09:37:45.038Z,16.06
2022-10-01T09:38:43.543Z,16.11
2022-10-01T09:39:49.994Z,16.15
2022-10-01T09:40:43.701Z,16.18
2022-10-01T09:41:43.642Z,16.20
2022-10-01T09:42:43.289Z,16.21
2022-10-01T09:43:44.372Z,16.22
2022-10-01T09:44:44.839Z,16.23
2022-10-01T09:46:00.789Z,16.22
2022-10-01T09:46:44.214Z,16.21
2022-10-01T09:47:54.265Z,16.20
2022-10-01T09:48:43.552Z,16.17
2022-10-01T09:49:43.909Z,16.13
2022-10-01T09:50:50.166Z,16.07
2022-10-01T09:51:44.030Z,16.00
2022-10-01T09:52:43.942Z,15.92
2022-10-01T09:53:43.192Z,15.82
2022-10-01T09:54:43.806Z,15.72
2022-10-01T09:55:44.069Z,15.62
2022-10-01T09:56:49.752Z,15.51
2022-10-01T09:57:43.286Z,15.42
2022-10-01T09:58:45.755Z,15.33
2022-10-01T09:59:44.932Z,15.25
2022-10-01T10:00:51.662Z,15.20
2022-10-01T10:01:44.736Z,15.14
2022-10-01T10:03:01.894Z,15.09
2022-10-01T10:03:43.103Z,15.03
2022-10-01T10:04:44.357Z,14.96
2022-10-01T10:05:43.057Z,14.90
2022-10-01T10:06:45.262Z,14.83
2022-10-01T10:07:43.748Z,14.77
2022-10-01T10:08:50.469Z,14.71
2022-10-01T10:09:43.221Z,14.64
2022-10-01T10:10:47.264Z,14.59
2022-10-01T10:11:43.288Z,14.54
2022-10-01T10:13:04.977Z,14.49
2022-10-01T10:13:49.302Z,14.43
2022-10-01T10:14:43.872Z,14.39
2022-10-01T10:15:55.504Z,14.36
2022-10-01T10:16:43.995Z,14.32
2022-10-01T10:17:46.424Z,14.28
2022-10-01T10:18:49.995Z,14.23
2022-10-01T10:19:43.550Z,14.17
2022-10-01T10:20:43.881Z,14.08
2022-10-01T10:21:43.066Z,13.99
2022-10-01T10:22:43.754Z,13.93
2022-10-01T10:23:43.129Z,13.92
2022-10-01T10:24:56.287Z,13.90
2022-10-01T10:25:43.200Z,13.86
2022-10-01T10:26:43.058Z,13.80
2022-10-01T10:27:44.123Z,13.73
2022-10-01T10:28:45.519Z,13.67
2022-10-01T10:29:45.077Z,13.61
2022-10-01T10:30:49.718Z,13.56
2022-10-01T10:31:44.069Z,13.54
2022-10-01T10:32:42.753Z,13.53
2022-10-01T10:33:44.018Z,13.51
2022-10-01T10:34:45.159Z,13.48
2022-10-01T10:36:06.114Z,13.46
2022-10-01T10:36:49.567Z,13.42
2022-10-01T10:37:50.347Z,13.36
2022-10-01T10:38:43.047Z,13.29
2022-10-01T10:39:42.946Z,13.23
2022-10-01T10:40:45.014Z,13.18
2022-10-01T10:41:44.463Z,13.14
2022-10-01T10:42:50.577Z,13.10
2022-10-01T10:43:51.874Z,13.07
2022-10-01T10:44:43.801Z,13.05
2022-10-01T10:45:45.210Z,13.05
2022-10-01T10:46:46.292Z,13.08
2022-10-01T10:47:43.906Z,13.11
2022-10-01T10:48:50.986Z,13.13
2022-10-01T10:49:43.072Z,13.14
2022-10-01T10:50:50.754Z,13.12
2022-10-01T10:51:47.090Z,13.08
2022-10-01T10:52:45.637Z,13.03
2022-10-01T10:53:49.389Z,12.98
2022-10-01T10:54:43.928Z,12.92
2022-10-01T10:55:43.261Z,12.86
2022-10-01T10:56:42.768Z,12.81
2022-10-01T10:57:43.872Z,12.76
2022-10-01T10:58:44.444Z,12.71
2022-10-01T10:59:51.267Z,12.68
2022-10-01T11:00:44.650Z,12.70
2022-10-01T11:01:43.735Z,12.74
2022-10-01T11:02:49.655Z,12.81
2022-10-01T11:03:42.525Z,12.87
2022-10-01T11:04:42.526Z,12.90
2022-10-01T11:05:55.237Z,12.89
2022-10-01T11:06:42.721Z,12.86
2022-10-01T11:07:42.806Z,12.82
2022-10-01T11:08:42.657Z,12.79
2022-10-01T11:09:43.375Z,12.76
2022-10-01T11:10:49.228Z,12.76
2022-10-01T11:11:44.045Z,12.77
2022-10-01T11:12:42.433Z,12.80
2022-10-01T11:13:42.882Z,12.84
2022-10-01T11:14:43.177Z,12.89
2022-10-01T11:15:43.300Z,12.92
2022-10-01T11:16:48.643Z,12.95
2022-10-01T11:17:53.593Z,13.00
2022-10-01T11:18:42.628Z,13.06
2022-10-01T11:19:56.852Z,13.11
2022-10-01T11:20:42.611Z,13.15
2022-10-01T11:22:05.356Z,13.16
2022-10-01T11:22:42.182Z,13.16
2022-10-01T11:23:43.392Z,13.14
2022-10-01T11:24:45.163Z,13.14
2022-10-01T11:25:44.397Z,13.14
2022-10-01T11:26:53.419Z,13.13
2022-10-01T11:27:44.437Z,13.10
2022-10-01T11:28:44.008Z,13.08
2022-10-01T11:29:43.425Z,13.06
2022-10-01T11:30:45.701Z,13.04
2022-10-01T11:31:46.064Z,13.02
2022-10-01T11:32:49.982Z,13.01
2022-10-01T11:33:43.561Z,13.01
2022-10-01T11:34:43.159Z,13.00
2022-10-01T11:35:43.225Z,13.00
2022-10-01T11:36:43.055Z,13.00
2022-10-01T11:37:51.478Z,13.00
2022-10-01T11:38:42.277Z,13.00
2022-10-01T11:39:42.369Z,13.00
2022-10-01T11:40:43.896Z,13.02
2022-10-01T11:41:43.489Z,13.04
2022-10-01T11:42:48.526Z,13.06
2022-10-01T11:43:42.083Z,13.07
2022-10-01T11:44:42.830Z,13.08
2022-10-01T11:45:42.989Z,13.09
2022-10-01T11:46:48.495Z,13.08
2022-10-01T11:47:43.105Z,13.06
2022-10-01T11:48:48.612Z,13.04
2022-10-01T11:49:49.105Z,13.03
2022-10-01T11:50:51.593Z,13.01
2022-10-01T11:51:44.187Z,12.99
2022-10-01T11:53:31.261Z,13.94
2022-10-01T11:54:32.367Z,13.48
2022-10-01T11:55:34.060Z,13.17
2022-10-01T11:56:32.260Z,12.97
2022-10-01T11:57:32.593Z,12.85
2022-10-01T11:58:31.932Z,12.76
2022-10-01T11:59:45.299Z,12.70
2022-10-01T12:00:33.224Z,12.65
2022-10-01T12:01:31.301Z,12.62
2022-10-01T12:02:33.165Z,12.61
2022-10-01T12:03:34.114Z,12.60
2022-10-01T12:04:31.112Z,12.59
2022-10-01T12:05:39.845Z,12.56
2022-10-01T12:06:34.061Z,12.54
2022-10-01T12:07:44.751Z,12.51
2022-10-01T12:08:32.214Z,12.49
2022-10-01T12:09:32.037Z,12.49
2022-10-01T12:10:39.035Z,12.49
2022-10-01T12:11:39.631Z,12.52
2022-10-01T12:12:32.841Z,12.56
2022-10-01T12:13:32.359Z,12.58
2022-10-01T12:14:32.461Z,12.60
2022-10-01T12:15:32.003Z,12.61
2022-10-01T12:16:39.133Z,12.61
2022-10-01T12:17:33.845Z,12.61
2022-10-01T12:18:34.509Z,12.62
2022-10-01T12:19:32.298Z,12.63
2022-10-01T12:20:41.321Z,12.64
2022-10-01T12:21:31.624Z,12.65
2022-10-01T12:22:50.545Z,12.66
2022-10-01T12:23:32.046Z,12.66
2022-10-01T12:24:34.888Z,12.66
2022-10-01T12:25:33.771Z,12.65
2022-10-01T12:26:32.701Z,12.65
2022-10-01T12:27:32.942Z,12.64
2022-10-01T12:28:37.280Z,12.64
2022-10-01T12:29:30.968Z,12.63
2022-10-01T12:30:32.132Z,12.63
2022-10-01T12:31:37.068Z,12.63
2022-10-01T12:32:31.554Z,12.63
2022-10-01T12:33:38.875Z,12.64
2022-10-01T12:34:35.294Z,12.65
2022-10-01T12:35:31.945Z,12.66
2022-10-01T12:36:31.549Z,12.65
2022-10-01T12:37:31.495Z,12.64
2022-10-01T12:38:37.208Z,12.62
2022-10-01T12:39:37.252Z,12.60
2022-10-01T12:40:32.438Z,12.58
2022-10-01T12:41:31.973Z,12.56
2022-10-01T12:42:30.591Z,12.54
2022-10-01T12:43:34.086Z,12.52
2022-10-01T12:44:30.938Z,12.51
2022-10-01T12:45:37.371Z,12.50
2022-10-01T12:46:32.094Z,12.49
2022-10-01T12:47:31.541Z,12.47
2022-10-01T12:48:36.328Z,12.46
2022-10-01T12:49:31.412Z,12.45
2022-10-01T12:50:31.724Z,12.43
2022-10-01T12:51:38.382Z,12.40
2022-10-01T12:52:30.386Z,12.38
2022-10-01T12:53:33.028Z,12.36
2022-10-01T12:54:31.415Z,12.33
2022-10-01T12:55:33.072Z,12.30
2022-10-01T12:56:31.347Z,12.27
2022-10-01T12:57:36.654Z,12.25
2022-10-01T12:58:31.750Z,12.22
2022-10-01T12:59:31.188Z,12.20
2022-10-01T13:00:30.874Z,12.20
2022-10-01T13:01:32.389Z,12.21
2022-10-01T13:02:37.855Z,12.22
2022-10-01T13:03:33.085Z,12.24
2022-10-01T13:04:35.361Z,12.26
2022-10-01T13:05:31.253Z,12.27
2022-10-01T13:06:33.193Z,12.27
2022-10-01T13:07:37.744Z,12.27
2022-10-01T13:08:32.685Z,12.26
2022-10-01T13:09:30.290Z,12.25